Time;durP1;ratioP1;P1;durP2;ratioP2;P2;SDS_P1;SDS_P2;PMS_P1;PMS_P2;Temp;Humidity;BMP_temperature;BMP_pressure;BME280_temperature;BME280_humidity;BME280_pressure;Samples;Min_cycle;Max_cycle;Signal;HPM_P1;HPM_P2
2021/07/22 00:02:06;;;;;;;17.70;10.35;;;27.70;74.80;;;;;;1902147;75;21055;-56
2021/07/22 00:04:36;;;;;;;14.78;10.72;;;27.70;74.80;;;;;;1902067;75;21103;-55
2021/07/22 00:07:05;;;;;;;14.33;10.65;;;27.70;74.80;;;;;;1902128;75;21090;-56
2021/07/22 00:09:34;;;;;;;14.73;10.45;;;27.60;74.70;;;;;;1902171;75;21028;-55
2021/07/22 00:12:04;;;;;;;20.52;11.60;;;27.60;74.70;;;;;;1902336;75;21032;-56
2021/07/22 00:14:33;;;;;;;16.65;11.55;;;27.60;74.70;;;;;;1902098;75;21103;-56
2021/07/22 00:17:06;;;;;;;14.87;10.32;;;27.60;74.80;;;;;;1902314;75;21404;-55
2021/07/22 00:19:36;;;;;;;20.30;11.33;;;27.60;74.90;;;;;;1902177;75;21036;-55
2021/07/22 00:22:06;;;;;;;18.05;11.25;;;27.60;74.90;;;;;;1902050;75;21028;-56
2021/07/22 00:24:36;;;;;;;16.73;11.53;;;27.60;75.00;;;;;;1902053;75;21008;-55
2021/07/22 00:27:05;;;;;;;15.58;11.28;;;27.60;75.00;;;;;;1902192;75;21098;-55
2021/07/22 00:29:38;;;;;;;20.35;11.73;;;27.50;75.10;;;;;;1902043;75;21012;-55
2021/07/22 00:32:10;;;;;;;17.62;11.55;;;27.50;75.20;;;;;;1902089;75;21111;-55
2021/07/22 00:34:39;;;;;;;14.80;11.20;;;27.50;75.30;;;;;;1902219;75;21475;-55
2021/07/22 00:37:08;;;;;;;17.02;11.95;;;27.40;74.80;;;;;;1902222;75;21090;-55
2021/07/22 00:39:38;;;;;;;15.95;10.82;;;27.40;75.40;;;;;;1902153;75;21083;-55
2021/07/22 00:42:08;;;;;;;16.77;10.95;;;27.40;75.40;;;;;;1902224;75;21094;-56
2021/07/22 00:44:37;;;;;;;12.70;11.30;;;27.50;75.50;;;;;;1902154;75;21064;-55
2021/07/22 00:47:07;;;;;;;15.23;11.33;;;27.50;75.40;;;;;;1902175;75;21044;-56
2021/07/22 00:49:37;;;;;;;13.65;11.05;;;27.60;75.30;;;;;;1877196;75;21064;-56
2021/07/22 00:52:06;;;;;;;17.00;12.20;;;27.60;75.10;;;;;;1902145;75;21048;-55
2021/07/22 00:54:37;;;;;;;17.27;13.22;;;27.60;75.20;;;;;;1902195;75;21056;-56
2021/07/22 00:57:06;;;;;;;15.05;12.33;;;27.60;75.40;;;;;;1902185;75;21064;-55
2021/07/22 00:59:36;;;;;;;17.15;12.93;;;27.50;75.50;;;;;;1902155;75;21029;-55
2021/07/22 01:02:06;;;;;;;17.30;12.70;;;27.50;75.80;;;;;;1902188;75;21025;-55
2021/07/22 01:04:35;;;;;;;14.20;12.73;;;27.40;75.90;;;;;;1902248;75;21009;-55
2021/07/22 01:07:05;;;;;;;14.70;11.60;;;27.40;75.90;;;;;;1902317;75;21045;-55
2021/07/22 01:09:34;;;;;;;15.35;11.60;;;27.40;76.10;;;;;;1902255;75;21029;-55
2021/07/22 01:12:04;;;;;;;16.80;12.55;;;27.40;76.20;;;;;;1902061;75;21025;-55
2021/07/22 01:14:34;;;;;;;15.70;12.43;;;27.30;76.30;;;;;;1902020;75;21024;-56
2021/07/22 01:17:07;;;;;;;14.60;12.35;;;27.20;76.40;;;;;;1901525;75;21139;-55
2021/07/22 01:19:37;;;;;;;13.38;10.85;;;27.30;76.60;;;;;;1902157;75;21088;-55
2021/07/22 01:22:06;;;;;;;16.70;11.75;;;27.30;76.70;;;;;;1876875;75;21068;-54
2021/07/22 01:24:36;;;;;;;15.05;12.05;;;27.30;76.40;;;;;;1902058;75;21135;-55
2021/07/22 01:27:07;;;;;;;15.72;10.90;;;27.40;76.30;;;;;;1901702;75;21107;-55
2021/07/22 01:29:47;;;;;;;12.43;11.03;;;27.40;76.10;;;;;;1901444;75;21086;-55
2021/07/22 01:32:16;;;;;;;11.90;10.43;;;27.40;75.90;;;;;;1902262;75;21142;-55
2021/07/22 01:34:46;;;;;;;14.03;11.73;;;27.30;75.80;;;;;;1904784;74;21096;-55
2021/07/22 01:37:17;;;;;;;13.78;11.18;;;27.30;75.80;;;;;;1924697;74;21514;-55
2021/07/22 01:39:47;;;;;;;14.85;10.23;;;27.30;76.60;;;;;;1924660;74;21089;-55
2021/07/22 01:42:17;;;;;;;11.12;10.03;;;27.20;76.10;;;;;;1924628;74;21091;-54
2021/07/22 01:44:48;;;;;;;13.15;10.13;;;27.20;76.00;;;;;;1924675;74;21043;-54
2021/07/22 01:47:18;;;;;;;14.45;10.00;;;27.20;76.00;;;;;;1924714;74;21092;-54
2021/07/22 01:49:49;;;;;;;11.12;9.93;;;27.30;76.00;;;;;;1924794;74;21031;-55
2021/07/22 01:52:19;;;;;;;12.03;10.38;;;27.30;75.90;;;;;;1924812;74;21105;-55
2021/07/22 01:54:50;;;;;;;11.35;9.85;;;27.30;75.70;;;;;;1924571;74;21051;-55
2021/07/22 01:57:21;;;;;;;10.85;9.28;;;27.30;75.60;;;;;;1924527;74;21036;-55
2021/07/22 01:59:53;;;;;;;9.80;7.87;;;27.30;75.50;;;;;;1924598;74;21035;-55
2021/07/22 02:02:22;;;;;;;15.72;8.58;;;27.30;74.90;;;;;;1924749;74;21023;-55
2021/07/22 02:04:53;;;;;;;11.25;8.38;;;27.30;75.10;;;;;;1924590;74;21088;-56
2021/07/22 02:07:23;;;;;;;8.58;7.65;;;27.30;74.90;;;;;;1924784;74;21031;-55
2021/07/22 02:09:57;;;;;;;10.10;6.97;;;27.40;74.60;;;;;;1923921;74;21115;-55
2021/07/22 02:12:26;;;;;;;8.33;7.28;;;27.40;74.20;;;;;;1924638;74;21094;-55
2021/07/22 02:14:57;;;;;;;10.28;7.25;;;27.30;73.90;;;;;;1924649;74;21145;-55
2021/07/22 02:17:26;;;;;;;15.65;7.58;;;27.20;73.80;;;;;;1924813;74;21003;-55
2021/07/22 02:19:56;;;;;;;15.65;8.10;;;27.20;73.70;;;;;;1924626;74;21107;-55
2021/07/22 02:22:25;;;;;;;8.78;7.75;;;27.10;73.90;;;;;;1924724;74;21572;-55
2021/07/22 02:24:59;;;;;;;9.98;7.65;;;27.10;74.10;;;;;;1919557;74;21103;-55
2021/07/22 02:27:35;;;;;;;15.17;9.00;;;27.10;74.40;;;;;;1923597;74;21072;-55
2021/07/22 02:30:05;;;;;;;10.05;8.28;;;27.10;74.50;;;;;;1924611;74;21793;-55
2021/07/22 02:32:35;;;;;;;13.90;8.83;;;27.10;75.20;;;;;;1924811;74;21055;-55
2021/07/22 02:35:05;;;;;;;10.30;7.87;;;27.10;74.40;;;;;;1924653;74;21032;-55
2021/07/22 02:37:36;;;;;;;14.25;7.95;;;27.10;74.00;;;;;;1919971;74;21072;-55
2021/07/22 02:40:10;;;;;;;22.50;9.20;;;27.10;73.90;;;;;;1924031;74;21555;-54
2021/07/22 02:42:39;;;;;;;9.85;6.95;;;27.10;73.70;;;;;;1891172;74;21028;-55
2021/07/22 02:45:10;;;;;;;8.88;6.55;;;27.10;73.50;;;;;;1924541;74;21126;-55
2021/07/22 02:47:40;;;;;;;8.90;6.90;;;27.20;73.50;;;;;;1924823;74;21036;-55
2021/07/22 02:50:11;;;;;;;13.32;8.50;;;27.30;73.30;;;;;;1924709;74;21004;-56
2021/07/22 02:52:41;;;;;;;13.83;6.75;;;27.30;73.00;;;;;;1924761;74;21023;-55
2021/07/22 02:55:12;;;;;;;12.88;7.20;;;27.30;73.60;;;;;;1924736;74;21423;-55
2021/07/22 02:57:42;;;;;;;10.75;6.70;;;27.40;73.00;;;;;;1924674;74;21098;-55
2021/07/22 03:00:11;;;;;;;8.85;5.58;;;27.40;72.80;;;;;;1924637;74;21032;-55
2021/07/22 03:02:42;;;;;;;8.90;6.35;;;27.40;72.70;;;;;;1924606;74;21027;-55
2021/07/22 03:05:11;;;;;;;10.13;5.83;;;27.50;72.80;;;;;;1924817;74;21028;-55
2021/07/22 03:07:44;;;;;;;7.35;5.70;;;27.50;72.60;;;;;;1924729;74;21027;-55
2021/07/22 03:10:12;;;;;;;10.85;6.42;;;27.50;72.40;;;;;;1924790;74;21493;-55
2021/07/22 03:12:42;;;;;;;7.78;5.58;;;27.60;72.40;;;;;;1924670;74;21103;-55
2021/07/22 03:15:12;;;;;;;11.85;5.60;;;27.60;72.20;;;;;;1924742;74;21035;-55
2021/07/22 03:17:42;;;;;;;6.33;4.53;;;27.60;71.80;;;;;;1923127;74;21027;-55
2021/07/22 03:20:13;;;;;;;8.38;5.03;;;27.60;71.30;;;;;;1924700;74;21083;-55
2021/07/22 03:22:44;;;;;;;9.93;4.85;;;27.60;71.30;;;;;;1923651;74;21055;-55
2021/07/22 03:25:18;;;;;;;5.53;4.33;;;27.50;71.20;;;;;;1923926;74;21020;-55
2021/07/22 03:27:54;;;;;;;6.55;4.42;;;27.50;70.90;;;;;;1922611;74;21139;-55
2021/07/22 03:30:25;;;;;;;6.35;4.58;;;27.40;71.00;;;;;;1922308;74;21518;-55
2021/07/22 03:32:56;;;;;;;7.60;4.70;;;27.30;71.00;;;;;;1919247;74;21094;-55
2021/07/22 03:35:27;;;;;;;6.65;5.20;;;27.30;71.30;;;;;;1891476;74;21501;-55
2021/07/22 03:37:58;;;;;;;6.58;4.75;;;27.30;71.40;;;;;;1924654;74;21164;-55
2021/07/22 03:40:28;;;;;;;8.35;4.40;;;27.40;71.30;;;;;;1924634;74;21774;-55
2021/07/22 03:42:57;;;;;;;5.87;4.72;;;27.50;71.30;;;;;;1924673;74;21044;-55
2021/07/22 03:45:28;;;;;;;7.45;4.95;;;27.50;71.30;;;;;;1923044;74;21035;-55
2021/07/22 03:48:02;;;;;;;5.45;4.80;;;27.50;71.10;;;;;;1924699;74;21093;-55
2021/07/22 03:50:32;;;;;;;7.03;4.67;;;27.50;71.20;;;;;;1924935;74;21189;-55
2021/07/22 03:53:01;;;;;;;8.08;5.55;;;27.50;71.20;;;;;;1924743;74;21008;-55
2021/07/22 03:55:31;;;;;;;8.00;5.25;;;27.40;71.30;;;;;;1924656;74;21032;-56
2021/07/22 03:58:02;;;;;;;6.15;4.92;;;27.40;71.60;;;;;;1919516;74;21064;-56
2021/07/22 04:00:33;;;;;;;8.30;4.60;;;27.30;71.60;;;;;;1924031;74;21076;-55
2021/07/22 04:03:07;;;;;;;12.25;5.42;;;27.30;71.70;;;;;;1924345;74;21047;-55
2021/07/22 04:05:37;;;;;;;5.28;4.35;;;27.40;71.80;;;;;;1924334;74;21087;-55
2021/07/22 04:08:07;;;;;;;8.95;5.10;;;27.40;71.60;;;;;;1924566;74;21086;-55
2021/07/22 04:10:47;;;;;;;9.25;4.50;;;27.30;71.50;;;;;;1922634;74;21115;-56
2021/07/22 04:13:25;;;;;;;8.08;5.10;;;27.30;71.70;;;;;;1920539;74;21076;-55
2021/07/22 04:16:05;;;;;;;12.43;5.72;;;27.30;71.70;;;;;;1920164;74;21089;-55
2021/07/22 04:18:48;;;;;;;13.25;5.75;;;27.20;71.60;;;;;;1912801;74;21016;-55
2021/07/22 04:21:19;;;;;;;10.95;5.78;;;27.20;72.00;;;;;;1920490;74;21060;-56
2021/07/22 04:23:57;;;;;;;79.17;11.15;;;27.10;72.10;;;;;;1924367;74;21072;-55
2021/07/22 04:26:37;;;;;;;8.80;5.00;;;27.10;72.10;;;;;;1923461;74;21111;-55
2021/07/22 04:29:10;;;;;;;7.15;3.85;;;27.10;72.10;;;;;;1923706;74;21126;-55
2021/07/22 04:31:40;;;;;;;5.90;4.65;;;27.10;72.00;;;;;;1924631;74;21114;-56
2021/07/22 04:34:29;;;;;;;14.33;5.80;;;27.10;72.00;;;;;;1896042;76;21207;-56
2021/07/22 04:37:07;;;;;;;9.65;4.75;;;27.20;72.10;;;;;;1888145;76;21150;-55
2021/07/22 04:39:54;;;;;;;14.55;5.58;;;27.20;71.90;;;;;;1896484;75;21470;-55
2021/07/22 04:42:31;;;;;;;7.37;4.42;;;27.30;71.70;;;;;;1912033;75;21123;-55
2021/07/22 04:45:11;;;;;;;9.75;4.55;;;27.40;71.20;;;;;;1888585;75;21101;-56
2021/07/22 04:47:59;;;;;;;7.80;4.00;;;27.40;71.10;;;;;;1914625;75;21032;-55
2021/07/22 04:50:33;;;;;;;4.28;3.00;;;27.50;70.70;;;;;;1908080;75;21606;-56
2021/07/22 04:53:16;;;;;;;6.17;5.03;;;27.70;70.50;;;;;;1863285;75;21126;-55
2021/07/22 04:55:57;;;;;;;5.10;3.30;;;27.90;70.10;;;;;;1914268;75;21163;-55
2021/07/22 04:58:26;;;;;;;7.20;3.42;;;28.20;68.80;;;;;;1914674;75;21028;-55
2021/07/22 05:00:57;;;;;;;5.90;3.60;;;28.30;68.00;;;;;;1914653;75;21082;-55
2021/07/22 05:03:26;;;;;;;3.98;3.20;;;28.40;67.80;;;;;;1914579;75;21106;-55
2021/07/22 05:05:56;;;;;;;5.33;2.95;;;28.50;67.30;;;;;;1914735;75;21031;-56
2021/07/22 05:08:27;;;;;;;5.28;2.85;;;28.50;66.60;;;;;;1913374;75;21068;-55
2021/07/22 05:11:10;;;;;;;9.30;3.15;;;28.60;66.50;;;;;;1883483;75;21124;-55
2021/07/22 05:13:53;;;;;;;5.20;2.98;;;28.60;66.10;;;;;;1912968;75;21072;-55
2021/07/22 05:16:27;;;;;;;3.70;3.00;;;28.70;65.60;;;;;;1909525;75;21104;-55
2021/07/22 05:19:01;;;;;;;6.55;3.08;;;28.80;65.10;;;;;;1913334;75;21424;-55
2021/07/22 05:21:35;;;;;;;6.78;3.35;;;28.80;65.00;;;;;;1912208;75;21087;-55
2021/07/22 05:24:12;;;;;;;6.08;3.65;;;28.90;64.90;;;;;;1912169;75;21080;-55
2021/07/22 05:26:43;;;;;;;5.70;3.27;;;28.90;64.10;;;;;;1913040;75;21072;-55
2021/07/22 05:29:26;;;;;;;13.50;3.80;;;29.00;63.90;;;;;;1863427;75;21567;-54
2021/07/22 05:31:56;;;;;;;4.83;3.20;;;29.10;62.90;;;;;;1912922;75;21041;-55
2021/07/22 05:34:28;;;;;;;8.88;3.77;;;29.10;62.60;;;;;;1911429;75;21139;-55
2021/07/22 05:36:58;;;;;;;4.17;3.00;;;29.10;63.00;;;;;;1865581;75;21059;-56
2021/07/22 05:39:45;;;;;;;4.97;2.95;;;29.10;62.80;;;;;;1900496;75;21025;-55
2021/07/22 05:42:14;;;;;;;12.25;4.55;;;29.20;62.30;;;;;;1901942;75;21094;-56
2021/07/22 05:44:44;;;;;;;5.30;3.30;;;29.10;62.30;;;;;;1902014;75;21008;-55
2021/07/22 05:47:13;;;;;;;5.53;3.17;;;29.10;62.30;;;;;;1901875;75;21036;-55
2021/07/22 05:49:43;;;;;;;7.22;3.30;;;29.20;62.10;;;;;;1901956;75;21009;-55
2021/07/22 05:52:12;;;;;;;8.08;3.35;;;29.30;62.10;;;;;;1901989;75;21009;-55
2021/07/22 05:54:42;;;;;;;3.80;3.20;;;29.30;61.50;;;;;;1901955;75;21032;-55
2021/07/22 05:57:11;;;;;;;5.12;3.62;;;29.30;61.40;;;;;;1901918;75;21090;-55
2021/07/22 05:59:40;;;;;;;5.25;3.75;;;29.30;61.70;;;;;;1901981;75;21513;-55
2021/07/22 06:02:09;;;;;;;4.28;3.33;;;29.50;62.00;;;;;;1901945;75;21032;-55
2021/07/22 06:04:38;;;;;;;11.28;4.50;;;29.70;61.80;;;;;;1902004;75;21016;-55
2021/07/22 06:07:08;;;;;;;5.03;3.50;;;29.80;61.60;;;;;;1901942;75;21092;-56
2021/07/22 06:09:37;;;;;;;6.62;3.80;;;30.00;61.10;;;;;;1901923;75;21142;-55
2021/07/22 06:12:07;;;;;;;7.78;3.83;;;30.00;60.20;;;;;;1901932;75;21028;-56
2021/07/22 06:14:36;;;;;;;6.85;4.50;;;30.00;60.50;;;;;;1902245;75;21009;-55
2021/07/22 06:17:06;;;;;;;8.55;4.40;;;30.10;60.50;;;;;;1902215;75;21029;-55
2021/07/22 06:19:36;;;;;;;8.03;3.67;;;30.20;60.50;;;;;;1902232;75;21029;-55
2021/07/22 06:22:05;;;;;;;8.13;4.25;;;30.20;59.90;;;;;;1902143;75;21028;-55
2021/07/22 06:24:35;;;;;;;5.25;3.45;;;30.40;59.70;;;;;;1902180;75;21090;-55
2021/07/22 06:27:04;;;;;;;6.30;3.83;;;30.50;59.30;;;;;;1902200;75;21028;-55
2021/07/22 06:29:34;;;;;;;7.92;3.80;;;30.50;58.70;;;;;;1902230;75;21032;-56
2021/07/22 06:32:03;;;;;;;7.10;3.80;;;30.50;58.60;;;;;;1902107;75;21008;-53
2021/07/22 06:34:33;;;;;;;6.35;3.85;;;30.60;58.60;;;;;;1902186;75;21029;-53
2021/07/22 06:37:02;;;;;;;11.60;4.12;;;30.70;59.60;;;;;;1901998;75;21009;-55
2021/07/22 06:39:33;;;;;;;6.53;3.20;;;30.70;58.90;;;;;;1900669;75;21133;-54
2021/07/22 06:42:03;;;;;;;5.47;3.25;;;30.80;58.50;;;;;;1900241;75;21157;-55
2021/07/22 06:44:33;;;;;;;4.17;3.67;;;30.80;58.20;;;;;;1899296;75;21087;-55
2021/07/22 06:47:02;;;;;;;4.37;3.60;;;30.90;57.90;;;;;;1902689;75;21011;-54
2021/07/22 06:49:32;;;;;;;6.30;4.15;;;30.90;57.80;;;;;;1908335;75;21027;-54
2021/07/22 06:52:04;;;;;;;7.85;3.50;;;31.00;57.70;;;;;;1907580;75;21156;-55
2021/07/22 06:54:34;;;;;;;4.90;3.80;;;31.00;57.70;;;;;;1907640;75;21015;-55
2021/07/22 06:57:03;;;;;;;7.10;3.55;;;31.10;57.20;;;;;;1908723;75;21085;-54
2021/07/22 06:59:33;;;;;;;8.65;4.22;;;31.20;56.90;;;;;;1908675;75;21094;-55
2021/07/22 07:02:02;;;;;;;10.55;4.12;;;31.20;56.60;;;;;;1908657;75;20999;-54
2021/07/22 07:04:31;;;;;;;8.05;3.85;;;31.20;56.60;;;;;;1908736;75;21023;-55
2021/07/22 07:07:01;;;;;;;4.90;4.35;;;31.20;56.30;;;;;;1908899;75;21160;-56
2021/07/22 07:09:30;;;;;;;8.33;3.83;;;31.30;56.20;;;;;;1908860;75;21019;-55
2021/07/22 07:12:00;;;;;;;4.45;4.05;;;31.20;55.90;;;;;;1908986;75;21039;-56
2021/07/22 07:14:29;;;;;;;5.30;3.87;;;31.10;56.00;;;;;;1908943;75;21031;-56
2021/07/22 07:16:58;;;;;;;7.65;3.87;;;31.20;56.40;;;;;;1908959;75;21092;-56
2021/07/22 07:19:28;;;;;;;7.80;4.42;;;31.40;56.50;;;;;;1909031;75;21039;-56
2021/07/22 07:21:57;;;;;;;5.20;3.92;;;31.50;56.10;;;;;;1908908;75;21113;-56
2021/07/22 07:24:27;;;;;;;4.30;3.87;;;31.70;55.80;;;;;;1908911;75;21109;-56
2021/07/22 07:26:56;;;;;;;9.28;4.70;;;31.60;55.40;;;;;;1908884;75;21034;-56
2021/07/22 07:29:25;;;;;;;6.83;4.30;;;31.50;55.20;;;;;;1908944;75;21105;-55
2021/07/22 07:31:59;;;;;;;8.23;4.80;;;31.40;54.90;;;;;;1908876;75;21051;-56
2021/07/22 07:34:28;;;;;;;6.72;4.47;;;31.30;54.80;;;;;;1908820;75;21156;-55
2021/07/22 07:36:57;;;;;;;8.15;4.67;;;31.40;55.00;;;;;;1908570;75;21127;-55
2021/07/22 07:39:27;;;;;;;7.78;4.40;;;31.40;55.00;;;;;;1905029;75;21669;-55
2021/07/22 07:41:56;;;;;;;8.40;4.47;;;31.50;54.60;;;;;;1904716;74;21076;-56
2021/07/22 07:44:26;;;;;;;11.18;5.10;;;31.50;54.50;;;;;;1906599;75;21093;-56
2021/07/22 07:46:55;;;;;;;5.33;4.53;;;31.40;54.50;;;;;;1910811;75;21027;-56
2021/07/22 07:49:25;;;;;;;7.00;4.33;;;31.40;54.60;;;;;;1900557;75;21126;-55
2021/07/22 07:51:54;;;;;;;7.35;4.60;;;31.40;54.60;;;;;;1905972;75;21013;-52
2021/07/22 07:54:24;;;;;;;7.35;4.40;;;31.40;54.70;;;;;;1900765;75;21007;-51
2021/07/22 07:56:55;;;;;;;8.73;4.83;;;31.50;54.60;;;;;;1903727;75;21031;-52
2021/07/22 07:59:25;;;;;;;8.00;4.20;;;31.60;54.50;;;;;;1907663;75;21426;-55
2021/07/22 08:01:54;;;;;;;6.42;4.00;;;31.70;54.60;;;;;;1907520;75;21089;-56
2021/07/22 08:04:46;;;;;;;16.30;4.95;;;31.90;53.30;;;;;;1957618;72;25801;-54
2021/07/22 08:07:15;;;;;;;7.72;4.40;;;32.10;53.90;;;;;;1911891;75;21086;-55
2021/07/22 08:09:47;;;;;;;6.87;4.20;;;32.40;53.40;;;;;;1901319;75;21079;-56
2021/07/22 08:12:17;;;;;;;6.03;3.67;;;32.50;52.40;;;;;;1899314;75;21572;-54
2021/07/22 08:14:47;;;;;;;9.68;4.55;;;32.60;52.80;;;;;;1893153;75;21109;-55
2021/07/22 08:17:21;;;;;;;13.80;5.10;;;32.60;51.80;;;;;;1900359;75;21047;-56
2021/07/22 08:19:49;;;;;;;6.03;3.90;;;32.40;52.00;;;;;;1893025;74;21033;-57
2021/07/22 08:22:18;;;;;;;10.05;4.25;;;32.40;52.60;;;;;;1884890;76;21056;-55
2021/07/22 08:24:48;;;;;;;4.70;3.55;;;32.50;51.70;;;;;;1884438;76;21107;-54
2021/07/22 08:27:28;;;;;;;15.85;4.97;;;32.50;51.10;;;;;;1903558;75;21022;-55
2021/07/22 08:29:59;;;;;;;12.25;4.87;;;32.60;50.50;;;;;;1917083;74;21101;-55
2021/07/22 08:32:29;;;;;;;5.97;3.50;;;32.70;50.40;;;;;;1917437;75;21152;-55
2021/07/22 08:34:58;;;;;;;6.78;4.00;;;32.70;49.50;;;;;;1917213;75;21074;-52
2021/07/22 08:37:27;;;;;;;14.55;4.72;;;32.70;49.30;;;;;;1917409;75;21049;-54
2021/07/22 08:40:01;;;;;;;7.00;3.77;;;32.50;48.70;;;;;;1917471;75;21160;-52
2021/07/22 08:42:30;;;;;;;7.10;3.87;;;32.40;49.00;;;;;;1917197;74;21050;-51
2021/07/22 08:45:00;;;;;;;4.65;3.67;;;32.50;49.30;;;;;;1917413;75;21457;-51
2021/07/22 08:47:30;;;;;;;6.75;3.70;;;32.50;49.20;;;;;;1917415;75;21140;-50
2021/07/22 08:49:59;;;;;;;13.05;3.70;;;32.60;49.40;;;;;;1917460;75;21143;-55
2021/07/22 08:52:28;;;;;;;13.85;3.72;;;32.70;49.20;;;;;;1917775;75;21066;-51
2021/07/22 08:54:59;;;;;;;9.90;4.17;;;32.70;49.20;;;;;;1917735;73;21109;-55
2021/07/22 08:57:33;;;;;;;8.10;4.20;;;32.70;49.40;;;;;;1917220;75;21066;-52
2021/07/22 09:00:04;;;;;;;10.28;3.87;;;32.70;49.50;;;;;;1917579;74;21023;-48
2021/07/22 09:02:34;;;;;;;8.43;4.08;;;32.70;49.80;;;;;;1917449;75;21066;-55
2021/07/22 09:05:07;;;;;;;8.88;4.00;;;32.70;49.90;;;;;;1923587;74;21038;-53
2021/07/22 09:07:37;;;;;;;9.90;4.58;;;32.70;49.80;;;;;;1924448;74;21167;-52
2021/07/22 09:10:09;;;;;;;10.03;5.10;;;32.80;50.00;;;;;;1924259;74;21078;-55
2021/07/22 09:12:48;;;;;;;5.78;4.40;;;32.80;50.20;;;;;;1924486;74;21082;-51
2021/07/22 09:15:34;;;;;;;4.60;3.55;;;32.90;50.80;;;;;;1924134;74;21082;-52
2021/07/22 09:18:23;;;;;;;6.28;4.20;;;32.90;50.00;;;;;;1923871;74;21039;-55
2021/07/22 09:20:54;;;;;;;8.28;4.42;;;32.70;49.70;;;;;;1923917;74;21083;-55
2021/07/22 09:23:28;;;;;;;7.78;4.12;;;32.50;49.50;;;;;;1923931;74;20983;-55
2021/07/22 09:25:57;;;;;;;7.87;3.60;;;32.30;49.90;;;;;;1923890;74;21038;-54
2021/07/22 09:28:28;;;;;;;5.62;4.30;;;32.20;50.00;;;;;;1923862;74;21043;-54
2021/07/22 09:31:02;;;;;;;6.65;4.15;;;32.10;50.00;;;;;;1923990;74;21078;-52
2021/07/22 09:33:39;;;;;;;8.03;3.45;;;32.00;50.00;;;;;;1923986;74;21086;-53
2021/07/22 09:36:23;;;;;;;15.68;4.05;;;32.00;49.90;;;;;;1923890;74;21014;-52
2021/07/22 09:38:53;;;;;;;8.93;4.00;;;32.10;49.80;;;;;;1893636;74;21122;-54
2021/07/22 09:41:23;;;;;;;9.05;3.30;;;32.30;49.80;;;;;;1890764;74;21048;-54
2021/07/22 09:43:53;;;;;;;11.60;3.47;;;32.30;49.40;;;;;;1890689;76;21000;-53
2021/07/22 09:46:25;;;;;;;5.10;3.45;;;32.30;49.30;;;;;;1890675;75;21103;-55
2021/07/22 09:49:11;;;;;;;6.60;3.80;;;32.30;49.30;;;;;;1886050;75;21110;-53
2021/07/22 09:51:41;;;;;;;6.28;3.62;;;32.40;49.80;;;;;;1890742;76;21004;-54
2021/07/22 09:54:11;;;;;;;7.97;3.87;;;32.50;49.80;;;;;;1890701;76;21028;-52
2021/07/22 09:56:42;;;;;;;16.37;4.12;;;32.70;49.70;;;;;;1911980;74;21070;-51
2021/07/22 09:59:11;;;;;;;8.30;3.22;;;32.80;49.50;;;;;;1923958;74;21096;-53
2021/07/22 10:01:48;;;;;;;11.97;3.87;;;33.00;49.40;;;;;;1923541;74;21023;-53
2021/07/22 10:04:20;;;;;;;7.03;3.67;;;33.00;48.60;;;;;;1923891;74;21147;-53
2021/07/22 10:06:50;;;;;;;6.65;4.00;;;33.10;48.80;;;;;;1924219;74;21445;-54
2021/07/22 10:09:21;;;;;;;7.45;3.92;;;33.10;48.60;;;;;;1923872;74;20999;-53
2021/07/22 10:11:51;;;;;;;9.60;3.80;;;33.10;48.40;;;;;;1924004;74;21472;-55
2021/07/22 10:14:22;;;;;;;4.37;3.85;;;33.10;48.50;;;;;;1923999;74;21112;-52
2021/07/22 10:16:52;;;;;;;10.03;3.92;;;33.10;48.20;;;;;;1917430;74;21028;-56
2021/07/22 10:19:25;;;;;;;9.23;3.75;;;33.10;48.30;;;;;;1900981;74;21461;-50
2021/07/22 10:21:54;;;;;;;10.70;3.83;;;33.10;48.30;;;;;;1924441;74;21536;-53
2021/07/22 10:24:25;;;;;;;6.30;3.33;;;33.00;47.90;;;;;;1924486;74;21042;-53
2021/07/22 10:26:55;;;;;;;6.95;3.15;;;32.90;48.50;;;;;;1924407;74;21019;-55
2021/07/22 10:29:25;;;;;;;6.42;2.98;;;32.70;48.90;;;;;;1924771;74;21080;-54
2021/07/22 10:31:55;;;;;;;6.67;3.80;;;32.70;49.20;;;;;;1923195;74;21086;-55
2021/07/22 10:34:26;;;;;;;8.50;3.77;;;32.70;49.40;;;;;;1923472;74;21058;-55
2021/07/22 10:36:56;;;;;;;4.85;2.85;;;32.70;49.10;;;;;;1924584;74;21065;-55
2021/07/22 10:40:04;;;;;;;8.45;3.72;;;32.80;48.80;;;;;;1924597;74;21065;-53
2021/07/22 10:42:47;;;;;;;4.50;3.30;;;32.80;49.00;;;;;;1924242;74;21140;-54
2021/07/22 10:45:23;;;;;;;19.37;13.08;;;32.80;49.50;;;;;;1924352;74;21076;-54
2021/07/22 10:48:03;;;;;;;28.40;19.73;;;32.90;49.00;;;;;;1924242;74;21465;-53
2021/07/22 10:50:50;;;;;;;8.60;4.65;;;32.90;47.70;;;;;;1924576;74;21039;-54
2021/07/22 10:53:39;;;;;;;7.92;3.50;;;32.80;47.10;;;;;;1924578;74;21082;-54
2021/07/22 10:56:11;;;;;;;13.93;10.18;;;32.70;47.70;;;;;;1924686;74;21100;-54
2021/07/22 10:58:43;;;;;;;11.63;5.08;;;32.70;47.70;;;;;;1924014;74;21050;-54
2021/07/22 11:01:12;;;;;;;8.28;3.30;;;32.70;47.70;;;;;;1924701;74;21073;-55
2021/07/22 11:03:47;;;;;;;7.40;3.67;;;32.70;47.40;;;;;;1924548;74;21390;-54
2021/07/22 11:06:17;;;;;;;5.95;2.92;;;32.70;47.70;;;;;;1924725;74;21559;-54
2021/07/22 11:08:47;;;;;;;7.40;3.45;;;32.80;47.50;;;;;;1924569;74;21018;-53
2021/07/22 11:11:18;;;;;;;7.22;3.37;;;32.80;47.60;;;;;;1921882;74;21535;-54
2021/07/22 11:13:49;;;;;;;9.93;3.52;;;32.80;47.40;;;;;;1924649;74;20991;-53
2021/07/22 11:16:24;;;;;;;9.93;4.12;;;32.80;47.40;;;;;;1924565;74;21121;-54
2021/07/22 11:19:02;;;;;;;7.12;3.27;;;32.80;47.10;;;;;;1924580;74;21035;-54
2021/07/22 11:21:38;;;;;;;8.90;3.02;;;32.80;47.60;;;;;;1924623;74;21042;-54
2021/07/22 11:24:25;;;;;;;6.53;3.75;;;32.80;47.50;;;;;;1924704;74;21011;-55
2021/07/22 11:26:53;;;;;;;18.37;3.90;;;32.80;47.70;;;;;;1924143;74;21144;-54
2021/07/22 11:29:22;;;;;;;12.83;3.77;;;32.80;47.60;;;;;;1924909;74;21014;-54
2021/07/22 11:32:02;;;;;;;8.80;3.37;;;32.80;47.50;;;;;;1924666;74;21749;-54
2021/07/22 11:34:30;;;;;;;5.70;3.58;;;32.80;47.20;;;;;;1924320;74;21100;-55
2021/07/22 11:37:00;;;;;;;8.18;3.15;;;32.90;47.30;;;;;;1924157;74;21500;-54
2021/07/22 11:39:38;;;;;;;4.22;3.52;;;32.90;47.20;;;;;;1924684;74;21038;-54
2021/07/22 11:42:09;;;;;;;5.97;3.33;;;32.90;47.30;;;;;;1924651;74;21097;-55
2021/07/22 11:44:39;;;;;;;5.60;3.37;;;32.90;47.40;;;;;;1903916;74;21089;-54
2021/07/22 11:47:13;;;;;;;7.75;4.37;;;33.00;47.20;;;;;;1924613;74;21058;-55
2021/07/22 11:49:44;;;;;;;4.92;3.27;;;33.00;46.80;;;;;;1924836;74;21011;-54
2021/07/22 11:52:13;;;;;;;8.33;3.15;;;33.00;46.70;;;;;;1924721;74;21106;-55
2021/07/22 11:54:43;;;;;;;5.15;3.67;;;32.90;46.90;;;;;;1924751;74;21089;-53
2021/07/22 11:57:12;;;;;;;15.45;3.77;;;32.80;46.90;;;;;;1924589;74;20999;-54
2021/07/22 11:59:41;;;;;;;8.38;4.72;;;32.70;47.30;;;;;;1924554;74;21018;-54
2021/07/22 12:02:12;;;;;;;16.00;3.92;;;32.60;47.50;;;;;;1924529;74;21019;-55
2021/07/22 12:04:42;;;;;;;8.48;3.42;;;32.70;48.20;;;;;;1924237;74;21413;-55
2021/07/22 12:07:12;;;;;;;8.50;4.87;;;32.70;48.70;;;;;;1924185;74;21436;-55
2021/07/22 12:09:54;;;;;;;5.15;3.62;;;32.70;49.30;;;;;;1924684;74;21069;-54
2021/07/22 12:12:26;;;;;;;9.50;3.90;;;32.70;49.80;;;;;;1924697;74;21058;-55
2021/07/22 12:15:07;;;;;;;4.83;3.50;;;32.60;50.20;;;;;;1924500;74;21086;-55
2021/07/22 12:17:38;;;;;;;4.08;3.55;;;32.50;50.20;;;;;;1924451;74;21034;-55
2021/07/22 12:20:09;;;;;;;5.03;3.08;;;32.50;50.60;;;;;;1924008;74;20998;-55
2021/07/22 12:22:40;;;;;;;5.95;3.10;;;32.50;51.00;;;;;;1903697;74;21081;-55
2021/07/22 12:25:11;;;;;;;6.42;3.30;;;32.40;51.20;;;;;;1924493;74;21135;-55
2021/07/22 12:27:42;;;;;;;9.13;2.95;;;32.40;51.50;;;;;;1924550;74;21075;-55
2021/07/22 12:30:33;;;;;;;4.08;2.37;;;32.50;51.30;;;;;;1924658;74;21085;-55
2021/07/22 12:33:06;;;;;;;5.17;2.65;;;32.50;50.90;;;;;;1924520;74;21036;-56
2021/07/22 12:35:40;;;;;;;5.47;2.80;;;32.40;51.50;;;;;;1924742;74;21031;-55
2021/07/22 12:38:11;;;;;;;13.50;3.02;;;32.30;51.30;;;;;;1924519;74;21089;-55
2021/07/22 12:40:48;;;;;;;4.70;2.40;;;32.30;51.40;;;;;;1924681;74;21015;-55
2021/07/22 12:43:22;;;;;;;5.12;2.30;;;32.20;51.50;;;;;;1924539;74;20990;-55
2021/07/22 12:45:53;;;;;;;5.00;1.80;;;32.30;51.60;;;;;;1924671;74;21128;-56
2021/07/22 12:48:40;;;;;;;5.50;2.15;;;32.20;51.30;;;;;;1924511;74;21038;-55
2021/07/22 12:51:12;;;;;;;5.72;1.82;;;32.10;51.30;;;;;;1924673;74;21139;-55
2021/07/22 12:53:41;;;;;;;5.37;1.90;;;31.80;51.50;;;;;;1923748;74;21104;-55
2021/07/22 12:56:11;;;;;;;7.65;2.70;;;31.60;51.90;;;;;;1924644;74;21077;-55
2021/07/22 12:58:45;;;;;;;7.83;2.40;;;31.50;52.30;;;;;;1924756;74;21256;-55
2021/07/22 13:01:22;;;;;;;5.97;1.87;;;31.40;52.90;;;;;;1925002;74;21018;-55
2021/07/22 13:03:53;;;;;;;5.92;2.20;;;31.40;53.10;;;;;;1924645;74;21076;-55
2021/07/22 13:06:24;;;;;;;3.65;2.20;;;31.40;53.20;;;;;;1916241;74;21470;-55
2021/07/22 13:08:53;;;;;;;9.53;2.72;;;31.30;53.00;;;;;;1905218;74;21112;-54